Weldon Spring Heights, Missouri
Current Conditions -  °F | °C
As of 9:54 PM on Sunday 25 Jan 2015 (Local Time) from KSUS Reporting Station
Overcast Overcast  
Wind Chill: 23°   Ceiling: 1800
Heat Index: 32°   Visibility: 10mi
Dew Point: 27°   Wind: 13mph
Humidity: 82%   Direction: 350°N
Pressure: 30"   Gusts: NA
Location:  38.7167°N, 90.6411°W
Report Text: KSUS 260354Z 35011KT 10SM BKN018 OVC032 00/M03 A3000 RMK AO2 SLP163 T00001028 $
Loading
Personal Weather Stations






























Interactive Weather Map New forecast layout! Learn more

10-Day Weather Forecast

Advertisements
Track Severe Weather on mobile